Time;durP1;ratioP1;P1;durP2;ratioP2;P2;SDS_P1;SDS_P2;PMS_P1;PMS_P2;Temp;Humidity;BMP_temperature;BMP_pressure;BME280_temperature;BME280_humidity;BME280_pressure;Samples;Min_cycle;Max_cycle;Signal;HPM_P1;HPM_P2
2021/12/25 00:01:41;;;;;;;23.63;14.95;;;;;;;7.95;100.00;97923.22;5049392;28;20021;-63
2021/12/25 00:04:07;;;;;;;26.75;14.45;;;;;;;7.97;100.00;97924.91;5057450;28;20025;-63
2021/12/25 00:06:34;;;;;;;26.42;14.77;;;;;;;7.94;100.00;97904.00;5051706;28;20029;-63
2021/12/25 00:08:59;;;;;;;27.30;15.65;;;;;;;7.94;100.00;97888.28;5053894;28;20039;-63
2021/12/25 00:11:24;;;;;;;29.52;15.75;;;;;;;7.98;100.00;97910.06;5045638;28;20037;-63
2021/12/25 00:13:50;;;;;;;34.83;17.30;;;;;;;7.95;100.00;97910.13;5047056;28;20084;-63
2021/12/25 00:16:15;;;;;;;32.35;17.30;;;;;;;7.98;100.00;97947.59;5065446;28;20017;-63
2021/12/25 00:18:41;;;;;;;30.27;15.90;;;;;;;7.99;100.00;97902.16;5061198;28;20328;-63
2021/12/25 00:21:07;;;;;;;32.50;17.60;;;;;;;7.99;100.00;97894.31;5059630;28;20014;-63
2021/12/25 00:23:33;;;;;;;40.42;19.30;;;;;;;8.05;100.00;97891.56;5045889;28;20022;-63
2021/12/25 00:26:03;;;;;;;41.25;20.83;;;;;;;8.03;100.00;97902.94;5046084;28;20017;-63
2021/12/25 00:47:07;;;;;;;39.22;19.67;;;;;;;8.08;100.00;97954.38;5046670;28;20064;-63
2021/12/25 00:49:32;;;;;;;46.38;20.73;;;;;;;8.08;100.00;97917.69;5054150;28;20021;-63
2021/12/25 00:51:58;;;;;;;40.38;20.50;;;;;;;8.07;100.00;97925.59;5057284;28;20025;-63
2021/12/25 00:54:24;;;;;;;40.83;18.80;;;;;;;8.08;100.00;97908.97;5058011;28;20408;-63
2021/12/25 00:56:49;;;;;;;42.38;20.48;;;;;;;8.07;100.00;97921.19;5054771;28;20047;-63
2021/12/25 00:59:15;;;;;;;43.80;20.65;;;;;;;8.08;100.00;97917.69;5064288;28;20020;-63
2021/12/25 01:01:41;;;;;;;45.75;21.15;;;;;;;8.08;100.00;97912.47;5056830;28;20033;-63
2021/12/25 01:04:07;;;;;;;52.97;22.05;;;;;;;8.07;100.00;97915.94;5053712;28;20071;-63
2021/12/25 01:06:33;;;;;;;42.75;20.50;;;;;;;8.07;100.00;97905.47;5059184;28;20048;-63
2021/12/25 01:08:58;;;;;;;47.40;21.27;;;;;;;8.06;100.00;97950.06;5051577;28;20021;-63
2021/12/25 01:11:26;;;;;;;48.47;22.45;;;;;;;8.08;100.00;97948.28;5055355;28;20340;-63
2021/12/25 01:13:59;;;;;;;44.83;21.23;;;;;;;8.05;100.00;97907.28;5054570;28;20025;-63
2021/12/25 01:42:04;;;;;;;38.47;17.85;;;;;;;8.09;100.00;97937.75;5045411;28;20080;-63
2021/12/25 01:50:00;;;;;;;32.13;17.30;;;;;;;8.07;100.00;98005.06;5052955;28;20066;-63
2021/12/25 01:52:29;;;;;;;26.45;15.18;;;;;;;8.11;100.00;97935.97;5056298;28;20092;-63
2021/12/25 01:55:00;;;;;;;25.95;14.25;;;;;;;8.10;100.00;97900.16;5045986;28;20026;-63
2021/12/25 01:57:28;;;;;;;24.23;13.80;;;;;;;8.13;100.00;97905.34;5063670;28;20024;-63
2021/12/25 01:59:54;;;;;;;25.02;12.13;;;;;;;8.13;100.00;97926.31;5063090;28;20025;-63
2021/12/25 02:02:20;;;;;;;34.03;16.77;;;;;;;8.08;100.00;97883.63;5052491;28;20317;-63
2021/12/25 02:04:46;;;;;;;38.17;17.20;;;;;;;8.08;100.00;97890.63;5055467;28;20088;-63
2021/12/25 02:07:11;;;;;;;28.63;15.85;;;;;;;8.05;100.00;97902.03;5063888;28;20070;-63
2021/12/25 02:09:37;;;;;;;24.75;14.27;;;;;;;8.11;100.00;97935.97;5063979;28;20081;-63
2021/12/25 02:12:03;;;;;;;23.52;12.75;;;;;;;8.10;100.00;97942.09;5045749;28;20025;-63
2021/12/25 02:14:29;;;;;;;24.85;13.20;;;;;;;8.11;100.00;97896.66;5049541;28;20017;-63
2021/12/25 02:17:01;;;;;;;22.50;12.32;;;;;;;8.13;100.00;97936.78;5062123;28;20025;-63
2021/12/25 02:20:00;;;;;;;25.30;12.40;;;;;;;8.15;100.00;97903.56;5062043;28;20024;-63
2021/12/25 02:22:19;;;;;;;22.23;11.30;;;;;;;8.18;100.00;97937.56;5043592;28;20351;-63
2021/12/25 02:24:46;;;;;;;20.05;11.98;;;;;;;8.20;100.00;97901.69;5056028;28;20190;-63
2021/12/25 02:27:12;;;;;;;22.52;11.48;;;;;;;8.26;100.00;97943.53;5062921;28;20024;-63
2021/12/25 02:29:38;;;;;;;21.58;11.68;;;;;;;8.33;100.00;97937.25;5063538;28;20062;-63
2021/12/25 02:32:05;;;;;;;18.52;10.98;;;;;;;8.31;100.00;97962.66;5065193;28;20032;-63
2021/12/25 02:34:30;;;;;;;20.42;11.65;;;;;;;8.34;100.00;97952.13;5065670;28;20025;-63
2021/12/25 02:36:56;;;;;;;21.08;11.63;;;;;;;8.36;100.00;97987.00;5067597;28;20032;-63
2021/12/25 02:39:22;;;;;;;20.45;11.30;;;;;;;8.38;100.00;97906.56;5067547;28;20047;-63
2021/12/25 02:41:47;;;;;;;22.17;11.45;;;;;;;8.39;100.00;97924.03;5067790;28;20063;-63
2021/12/25 02:44:12;;;;;;;18.85;11.07;;;;;;;8.39;100.00;97958.09;5059024;28;20021;-63
2021/12/25 02:46:38;;;;;;;18.08;10.55;;;;;;;8.42;100.00;97917.88;5061855;28;20032;-63
2021/12/25 02:49:08;;;;;;;22.02;12.05;;;;;;;8.39;100.00;97908.28;5067075;28;20025;-63
2021/12/25 02:51:34;;;;;;;23.05;12.15;;;;;;;8.42;100.00;97918.72;5067227;28;20025;-63
2021/12/25 02:53:59;;;;;;;20.98;11.95;;;;;;;8.41;100.00;97917.00;5066352;28;20017;-63
2021/12/25 02:56:24;;;;;;;20.52;11.93;;;;;;;8.40;100.00;97941.50;5067268;28;20025;-63
2021/12/25 02:58:50;;;;;;;22.50;11.75;;;;;;;8.41;100.00;97943.22;5066549;28;20021;-63
2021/12/25 03:01:18;;;;;;;22.58;12.18;;;;;;;8.43;100.00;97915.22;5047212;28;20324;-63
2021/12/25 03:03:44;;;;;;;23.55;12.98;;;;;;;8.41;100.00;97932.72;5052143;28;20039;-63
2021/12/25 03:06:11;;;;;;;22.67;12.20;;;;;;;8.46;100.00;97920.41;5067102;28;20021;-63
2021/12/25 03:08:37;;;;;;;26.42;13.88;;;;;;;8.44;100.00;97895.94;5066285;28;20071;-63
2021/12/25 03:11:06;;;;;;;25.55;13.85;;;;;;;8.45;100.00;97866.19;5048277;28;20037;-63
2021/12/25 03:13:45;;;;;;;28.33;14.85;;;;;;;8.56;100.00;97827.50;5047440;28;20029;-63
2021/12/25 03:16:12;;;;;;;26.67;14.88;;;;;;;8.61;100.00;97824.75;5047396;28;20021;-63
2021/12/25 03:18:45;;;;;;;26.98;14.13;;;;;;;8.59;100.00;97827.41;5061293;28;20083;-63
2021/12/25 03:21:12;;;;;;;30.05;14.82;;;;;;;8.60;100.00;97834.38;5047552;28;20028;-63
2021/12/25 03:23:38;;;;;;;31.52;15.98;;;;;;;8.60;100.00;97818.63;5053443;28;20025;-63
2021/12/25 03:26:06;;;;;;;29.23;13.82;;;;;;;8.62;100.00;97857.94;5066674;28;20084;-63
2021/12/25 03:28:33;;;;;;;32.55;15.85;;;;;;;8.59;100.00;97827.41;5066629;28;20100;-63
2021/12/25 03:31:04;;;;;;;35.47;17.50;;;;;;;8.61;100.00;97849.19;5049438;28;20032;-63
2021/12/25 03:33:30;;;;;;;36.88;17.58;;;;;;;8.62;100.00;97878.94;5046814;28;20063;-63
2021/12/25 03:35:56;;;;;;;34.13;16.42;;;;;;;8.58;100.00;97841.41;5046530;28;20029;-63
2021/12/25 03:38:22;;;;;;;37.10;18.95;;;;;;;8.61;100.00;97856.22;5050369;28;20021;-63
2021/12/25 03:40:49;;;;;;;34.03;16.33;;;;;;;8.59;100.00;97848.41;5061726;28;20221;-63
2021/12/25 03:43:18;;;;;;;45.35;19.45;;;;;;;8.60;100.00;97850.13;5065170;28;20027;-63
2021/12/25 03:45:45;;;;;;;38.42;18.80;;;;;;;8.59;100.00;97832.66;5066294;28;20080;-63
2021/12/25 03:48:16;;;;;;;36.45;17.63;;;;;;;8.60;100.00;97844.00;5065613;28;20051;-63
2021/12/25 03:57:37;;;;;;;39.70;18.05;;;;;;;8.59;100.00;97848.41;5058534;28;20028;-64
2021/12/25 03:59:12;;;;;;;40.58;18.38;;;;;;;8.61;100.00;97872.81;5046758;28;20032;-63
2021/12/25 04:06:45;;;;;;;41.70;18.98;;;;;;;8.60;100.00;97894.69;5046030;28;20060;-63
2021/12/25 04:09:22;;;;;;;38.00;17.63;;;;;;;8.61;100.00;97896.41;5046539;28;20067;-63
2021/12/25 04:11:47;;;;;;;38.72;19.00;;;;;;;8.60;100.00;97886.84;5063712;28;20053;-63
2021/12/25 04:14:13;;;;;;;34.53;16.75;;;;;;;8.60;100.00;97880.72;5049475;28;20017;-63
2021/12/25 04:16:38;;;;;;;40.38;19.13;;;;;;;8.60;100.00;97873.72;5065459;28;20024;-63
2021/12/25 04:19:06;;;;;;;47.40;20.90;;;;;;;8.60;100.00;97871.09;5065257;28;20017;-63
2021/12/25 04:21:32;;;;;;;37.53;18.98;;;;;;;8.63;100.00;97873.66;5048461;28;20025;-63
2021/12/25 04:23:57;;;;;;;35.30;17.95;;;;;;;8.63;100.00;97873.66;5045862;28;20087;-63
2021/12/25 04:26:24;;;;;;;36.75;18.38;;;;;;;8.65;100.00;97865.75;5046323;28;20013;-63
2021/12/25 04:31:34;;;;;;;40.63;18.65;;;;;;;8.65;100.00;97865.75;5063372;28;20091;-63
2021/12/25 05:03:41;;;;;;;30.95;16.75;;;;;;;8.72;100.00;97847.19;5064081;28;20402;-63
2021/12/25 05:06:07;;;;;;;34.78;16.50;;;;;;;8.77;100.00;97847.94;5064791;28;20028;-63
2021/12/25 05:08:32;;;;;;;34.65;16.92;;;;;;;8.73;100.00;97841.03;5064742;28;20041;-63
2021/12/25 05:10:57;;;;;;;38.33;17.33;;;;;;;8.69;100.00;97844.66;5053674;28;20039;-63
2021/12/25 05:13:23;;;;;;;36.65;17.27;;;;;;;8.70;100.00;97841.13;5063854;28;20033;-63
2021/12/25 05:15:49;;;;;;;35.15;17.75;;;;;;;8.70;100.00;97835.88;5063847;28;20066;-63
2021/12/25 05:18:15;;;;;;;37.33;18.15;;;;;;;8.68;100.00;97831.56;5064541;28;20028;-63
2021/12/25 05:20:41;;;;;;;31.85;16.48;;;;;;;8.70;100.00;97820.13;5049351;28;20021;-63
2021/12/25 05:23:07;;;;;;;35.63;17.20;;;;;;;8.69;100.00;97844.66;5054829;28;20078;-63
2021/12/25 05:25:35;;;;;;;34.92;17.08;;;;;;;8.68;100.00;97850.78;5046197;28;20029;-63
2021/12/25 05:28:02;;;;;;;33.42;16.17;;;;;;;8.64;100.00;97841.25;5052004;28;20084;-63
2021/12/25 05:30:29;;;;;;;31.52;15.93;;;;;;;8.62;100.00;97835.22;5051213;28;20087;-63
2021/12/25 05:32:54;;;;;;;35.20;16.10;;;;;;;8.63;100.00;97834.31;5044371;28;20029;-63
2021/12/25 05:35:20;;;;;;;32.78;16.15;;;;;;;8.63;100.00;97841.28;5044814;28;20085;-63
2021/12/25 05:37:46;;;;;;;29.10;15.82;;;;;;;8.66;100.00;97844.72;5044314;28;20092;-63
2021/12/25 05:40:12;;;;;;;30.08;15.00;;;;;;;8.65;100.00;97837.75;5053114;28;20024;-63
2021/12/25 05:42:39;;;;;;;30.65;14.98;;;;;;;8.67;100.00;97841.19;5045566;28;20057;-63
2021/12/25 05:45:05;;;;;;;30.83;15.32;;;;;;;8.69;100.00;97843.78;5063394;28;20052;-63
2021/12/25 05:47:30;;;;;;;32.20;15.27;;;;;;;8.68;100.00;97842.06;5056064;28;20031;-64
2021/12/25 05:49:56;;;;;;;32.03;16.20;;;;;;;8.75;100.00;97848.88;5055866;28;20021;-63
2021/12/25 05:52:21;;;;;;;35.75;17.15;;;;;;;8.75;100.00;97841.00;5044290;28;20041;-63
2021/12/25 05:54:47;;;;;;;39.97;18.23;;;;;;;8.73;100.00;97845.41;5058272;28;20066;-63
2021/12/25 05:57:12;;;;;;;35.60;16.80;;;;;;;8.68;100.00;97842.91;5064229;28;20217;-63
2021/12/25 05:59:37;;;;;;;38.03;18.38;;;;;;;8.67;100.00;97849.06;5063148;28;20025;-63
2021/12/25 06:02:03;;;;;;;39.03;18.58;;;;;;;8.75;100.00;97843.63;5063646;28;20032;-63
2021/12/25 06:04:30;;;;;;;38.63;18.00;;;;;;;8.77;100.00;97845.31;5051252;28;20033;-63
2021/12/25 06:06:55;;;;;;;35.13;17.65;;;;;;;8.69;100.00;97849.03;5044884;28;20057;-63
2021/12/25 06:09:21;;;;;;;32.10;17.00;;;;;;;8.69;100.00;97849.91;5057177;28;20028;-63
2021/12/25 06:11:47;;;;;;;33.97;17.27;;;;;;;8.68;100.00;97842.06;5043894;28;20037;-63
2021/12/25 06:14:19;;;;;;;31.58;17.65;;;;;;;8.66;100.00;97847.34;5052563;28;20084;-63
2021/12/25 06:16:44;;;;;;;36.20;17.58;;;;;;;8.66;100.00;97849.09;5054894;28;20024;-63
2021/12/25 06:19:10;;;;;;;36.28;17.90;;;;;;;8.64;100.00;97841.25;5053146;28;20018;-63
2021/12/25 06:21:36;;;;;;;34.97;17.00;;;;;;;8.64;100.00;97857.00;5045069;28;20053;-63
2021/12/25 06:24:02;;;;;;;37.25;17.17;;;;;;;8.62;100.00;97853.56;5043997;28;20340;-63
2021/12/25 06:26:29;;;;;;;36.30;17.17;;;;;;;8.65;100.00;97853.50;5043959;28;20221;-63
2021/12/25 06:28:54;;;;;;;33.00;16.48;;;;;;;8.59;100.00;97858.88;5045598;28;20225;-63
2021/12/25 06:31:20;;;;;;;34.03;17.83;;;;;;;8.64;100.00;97853.53;5061599;28;20028;-63
2021/12/25 06:33:46;;;;;;;33.00;17.85;;;;;;;8.64;100.00;97867.50;5055941;28;20097;-63
2021/12/25 06:36:11;;;;;;;38.38;19.48;;;;;;;8.66;100.00;97843.84;5044742;28;20017;-63
2021/12/25 06:38:39;;;;;;;36.97;19.02;;;;;;;8.65;100.00;97852.63;5043542;28;20044;-63
2021/12/25 06:41:05;;;;;;;37.95;19.08;;;;;;;8.65;100.00;97856.13;5062970;28;20024;-63
2021/12/25 06:43:30;;;;;;;37.70;19.17;;;;;;;8.59;100.00;97864.13;5062797;28;20017;-63
2021/12/25 06:45:55;;;;;;;40.60;19.58;;;;;;;8.57;100.00;97860.69;5058689;28;20067;-63
2021/12/25 06:48:22;;;;;;;35.60;18.23;;;;;;;8.58;100.00;97862.38;5043529;28;20117;-63
2021/12/25 06:50:47;;;;;;;36.83;17.80;;;;;;;8.60;100.00;97865.84;5060991;28;20376;-63
2021/12/25 06:53:13;;;;;;;32.42;16.83;;;;;;;8.62;100.00;97864.06;5062722;28;20382;-63
2021/12/25 06:55:38;;;;;;;35.67;17.90;;;;;;;8.62;100.00;97871.94;5063129;28;20016;-63
2021/12/25 06:58:04;;;;;;;35.85;17.40;;;;;;;8.62;100.00;97864.06;5063071;28;20023;-63
2021/12/25 07:00:31;;;;;;;38.58;17.92;;;;;;;8.59;100.00;97869.38;5048866;28;20225;-63
2021/12/25 07:02:57;;;;;;;37.35;18.50;;;;;;;8.60;100.00;97872.84;5043373;28;20071;-63
2021/12/25 07:05:23;;;;;;;32.10;17.55;;;;;;;8.63;100.00;97881.50;5044993;28;20267;-63
2021/12/25 07:07:49;;;;;;;36.00;18.02;;;;;;;8.60;100.00;97876.34;5052964;28;20070;-63
2021/12/25 07:10:15;;;;;;;34.95;17.73;;;;;;;8.60;100.00;97876.34;5053961;28;20309;-63
2021/12/25 07:12:44;;;;;;;33.70;18.20;;;;;;;8.62;100.00;97879.81;5047099;28;20060;-64
2021/12/25 07:15:10;;;;;;;38.78;19.27;;;;;;;8.60;100.00;97880.72;5053606;28;20024;-64
2021/12/25 07:17:35;;;;;;;31.40;17.08;;;;;;;8.64;100.00;97885.84;5063359;28;20070;-63
2021/12/25 07:20:00;;;;;;;33.20;16.95;;;;;;;8.63;100.00;97881.50;5065147;28;20055;-63
2021/12/25 07:22:26;;;;;;;34.95;17.67;;;;;;;8.56;100.00;97874.69;5062229;28;20085;-63
2021/12/25 07:24:52;;;;;;;30.42;16.83;;;;;;;8.58;100.00;97878.13;5055748;28;20224;-64
2021/12/25 07:27:17;;;;;;;30.98;17.15;;;;;;;8.60;100.00;97876.34;5055538;28;20028;-63
2021/12/25 07:29:43;;;;;;;31.90;16.05;;;;;;;8.63;100.00;97876.28;5055220;28;20032;-64
2021/12/25 07:32:08;;;;;;;33.05;18.23;;;;;;;8.62;100.00;97887.66;5063172;28;20084;-63
2021/12/25 07:34:34;;;;;;;34.47;17.60;;;;;;;8.65;100.00;97895.47;5064838;28;20025;-63
2021/12/25 07:37:00;;;;;;;35.22;18.05;;;;;;;8.63;100.00;97886.75;5059403;28;20045;-63
2021/12/25 07:39:26;;;;;;;36.78;17.77;;;;;;;8.63;100.00;97892.00;5045706;28;20021;-63
2021/12/25 07:41:51;;;;;;;31.23;17.55;;;;;;;8.61;100.00;97890.34;5050483;28;20031;-63
2021/12/25 07:44:17;;;;;;;37.25;17.75;;;;;;;8.62;100.00;97892.91;5064026;28;20017;-63
2021/12/25 07:46:44;;;;;;;36.03;18.48;;;;;;;8.64;100.00;97898.13;5058907;28;20080;-63
2021/12/25 07:49:18;;;;;;;40.13;17.75;;;;;;;8.67;100.00;97892.81;5049228;28;20341;-63
2021/12/25 07:51:44;;;;;;;36.03;18.73;;;;;;;8.67;100.00;97893.66;5054230;28;20209;-63
2021/12/25 07:54:10;;;;;;;37.42;19.30;;;;;;;8.68;100.00;97894.53;5064751;28;20025;-63
2021/12/25 07:56:35;;;;;;;31.73;17.00;;;;;;;8.66;100.00;97912.91;5062543;28;20025;-63
2021/12/25 07:59:01;;;;;;;34.15;17.60;;;;;;;8.68;100.00;97899.78;5056804;28;20244;-63
2021/12/25 08:01:26;;;;;;;38.75;18.83;;;;;;;8.68;100.00;97905.84;5058802;28;20402;-63
2021/12/25 08:03:51;;;;;;;39.13;20.90;;;;;;;8.65;100.00;97903.34;5064209;28;20024;-64
2021/12/25 08:06:17;;;;;;;36.47;19.67;;;;;;;8.67;100.00;97914.63;5063664;28;20090;-63
2021/12/25 08:08:43;;;;;;;40.38;21.83;;;;;;;8.64;100.00;97913.88;5064420;28;20017;-63
2021/12/25 08:11:08;;;;;;;41.20;19.90;;;;;;;8.65;100.00;97911.22;5063382;28;20221;-63
2021/12/25 08:13:34;;;;;;;38.22;21.55;;;;;;;8.67;100.00;97929.53;5062838;28;20107;-63
2021/12/25 08:15:59;;;;;;;39.45;21.23;;;;;;;8.67;100.00;97919.88;5063065;28;20025;-63
2021/12/25 08:18:25;;;;;;;41.00;21.63;;;;;;;8.71;100.00;97925.94;5058031;28;20022;-63
2021/12/25 08:20:52;;;;;;;41.58;21.52;;;;;;;8.72;100.00;97917.16;5057210;28;20017;-63
2021/12/25 08:23:18;;;;;;;39.78;21.27;;;;;;;8.71;100.00;97911.03;5061293;28;20016;-63
2021/12/25 08:25:43;;;;;;;41.97;21.90;;;;;;;8.71;100.00;97915.44;5064086;28;20075;-63
2021/12/25 08:28:09;;;;;;;39.13;20.67;;;;;;;8.70;100.00;97919.81;5060434;28;20024;-63
2021/12/25 08:30:35;;;;;;;40.67;21.15;;;;;;;8.70;100.00;97914.56;5058057;28;20026;-63
2021/12/25 08:33:01;;;;;;;46.03;21.50;;;;;;;8.71;100.00;97913.66;5061054;28;20028;-63
2021/12/25 08:35:28;;;;;;;42.90;21.63;;;;;;;8.75;100.00;97923.22;5060302;28;20332;-64
2021/12/25 08:37:54;;;;;;;43.15;22.08;;;;;;;8.80;100.00;97917.84;5056835;28;20117;-64
2021/12/25 08:40:23;;;;;;;41.58;21.50;;;;;;;8.89;100.00;97914.16;5060889;28;20091;-64
2021/12/25 08:42:53;;;;;;;40.63;21.63;;;;;;;8.88;100.00;97915.03;5060610;28;20024;-64
2021/12/25 08:46:13;;;;;;;41.13;21.98;;;;;;;8.89;100.00;97916.78;5047221;28;20274;-64
2021/12/25 08:48:26;;;;;;;38.75;19.13;;;;;;;8.90;100.00;97916.72;5050123;28;20044;-64
2021/12/25 08:50:58;;;;;;;36.72;19.38;;;;;;;8.94;100.00;97914.88;5063657;28;20053;-64
2021/12/25 08:53:25;;;;;;;42.40;20.25;;;;;;;8.93;100.00;97921.03;5064468;28;20271;-64
2021/12/25 08:55:54;;;;;;;37.80;20.20;;;;;;;8.94;100.00;97917.50;5064125;28;20370;-64
2021/12/25 08:58:19;;;;;;;35.83;18.85;;;;;;;8.92;100.00;97919.31;5064166;28;20025;-64
2021/12/25 09:00:47;;;;;;;31.80;18.10;;;;;;;8.97;100.00;97927.94;5056823;28;20018;-64
2021/12/25 09:03:12;;;;;;;38.80;18.20;;;;;;;8.98;100.00;97925.25;5044893;28;20021;-64
2021/12/25 09:05:38;;;;;;;34.65;18.08;;;;;;;8.94;100.00;97913.13;5046095;28;20027;-64
2021/12/25 09:08:05;;;;;;;36.10;17.85;;;;;;;8.96;100.00;97927.09;5046727;28;20028;-64
2021/12/25 09:10:30;;;;;;;35.88;17.83;;;;;;;8.99;100.00;97920.88;5056636;28;20040;-64
2021/12/25 09:12:57;;;;;;;32.78;16.65;;;;;;;8.98;100.00;97924.44;5057416;28;20028;-64
2021/12/25 09:15:23;;;;;;;34.00;17.45;;;;;;;9.06;100.00;97919.84;5063217;28;20371;-64
2021/12/25 09:17:49;;;;;;;27.60;15.15;;;;;;;9.04;100.00;97913.75;5063034;28;20313;-64
2021/12/25 09:20:20;;;;;;;29.23;16.15;;;;;;;9.06;100.00;97927.72;5054878;28;20018;-64
2021/12/25 09:22:45;;;;;;;30.48;15.50;;;;;;;9.07;100.00;97917.16;5044607;28;20028;-64
2021/12/25 09:25:11;;;;;;;31.10;15.30;;;;;;;9.11;100.00;97920.59;5060946;28;20083;-63
2021/12/25 09:27:37;;;;;;;27.52;15.23;;;;;;;9.13;100.00;97929.28;5063731;28;20025;-64
2021/12/25 09:30:04;;;;;;;27.92;15.07;;;;;;;9.14;100.00;97921.34;5044426;28;20205;-64
2021/12/25 09:32:29;;;;;;;31.73;14.80;;;;;;;9.14;100.00;97928.41;5058550;28;20058;-64
2021/12/25 09:34:55;;;;;;;30.80;15.45;;;;;;;9.17;100.00;97921.28;5060677;28;20021;-64
2021/12/25 09:37:21;;;;;;;25.40;14.30;;;;;;;9.18;100.00;97932.66;5044651;28;20013;-63
2021/12/25 09:39:47;;;;;;;29.10;15.48;;;;;;;9.19;100.00;97929.13;5044261;28;20029;-63
2021/12/25 09:42:13;;;;;;;29.88;14.93;;;;;;;9.22;100.00;97934.31;5043954;28;20104;-64
2021/12/25 09:44:38;;;;;;;32.42;14.73;;;;;;;9.20;100.00;97946.63;5044202;28;20044;-64
2021/12/25 09:47:04;;;;;;;27.88;15.32;;;;;;;9.24;100.00;97937.75;5044150;28;20028;-64
2021/12/25 09:49:30;;;;;;;31.73;15.32;;;;;;;9.20;100.00;97938.75;5044140;28;20058;-64
2021/12/25 09:51:56;;;;;;;30.38;15.20;;;;;;;9.28;100.00;97942.91;5043986;28;20036;-64
2021/12/25 09:54:22;;;;;;;28.92;14.90;;;;;;;9.25;100.00;97924.59;5044102;28;20058;-64
2021/12/25 09:56:49;;;;;;;30.05;14.65;;;;;;;9.22;100.00;97924.66;5044061;28;20343;-64
2021/12/25 09:59:15;;;;;;;28.92;15.63;;;;;;;9.33;100.00;97932.28;5044239;28;20018;-64
2021/12/25 10:01:53;;;;;;;25.52;13.55;;;;;;;9.35;100.00;97935.72;5042439;28;20017;-64
2021/12/25 10:04:37;;;;;;;27.10;14.43;;;;;;;9.34;100.00;97934.00;5043923;28;20025;-64
2021/12/25 10:07:11;;;;;;;25.38;14.40;;;;;;;9.37;100.00;97933.91;5044174;28;20105;-64
2021/12/25 10:09:36;;;;;;;23.48;13.40;;;;;;;9.35;100.00;97940.97;5043708;28;20055;-64
2021/12/25 10:12:13;;;;;;;26.10;13.43;;;;;;;9.36;100.00;97947.97;5044095;28;20041;-64
2021/12/25 10:14:41;;;;;;;24.02;12.82;;;;;;;9.37;100.00;97944.44;5043877;28;20025;-64
2021/12/25 10:17:31;;;;;;;29.25;13.93;;;;;;;9.39;100.00;97934.72;5043824;28;20245;-64
2021/12/25 10:20:07;;;;;;;24.25;12.73;;;;;;;9.33;100.00;97934.91;5043864;28;20089;-64
2021/12/25 10:22:34;;;;;;;26.33;12.90;;;;;;;9.30;100.00;97935.81;5044080;28;20029;-64
2021/12/25 10:25:10;;;;;;;25.55;13.18;;;;;;;9.33;100.00;97937.53;5043751;28;20033;-64
2021/12/25 10:27:36;;;;;;;27.88;14.35;;;;;;;9.33;100.00;97937.53;5058318;28;20029;-64
2021/12/25 10:30:06;;;;;;;29.25;15.02;;;;;;;9.39;100.00;97937.34;5063598;28;20048;-64
2021/12/25 10:32:39;;;;;;;30.40;16.38;;;;;;;9.45;100.00;97937.19;5063573;28;20029;-64
2021/12/25 10:35:23;;;;;;;32.30;16.45;;;;;;;9.49;100.00;97926.56;5063656;28;20127;-64
2021/12/25 10:37:52;;;;;;;35.20;16.20;;;;;;;9.56;100.00;97924.66;5063587;28;20392;-64
2021/12/25 10:40:18;;;;;;;33.33;15.85;;;;;;;9.58;100.00;97920.22;5063572;28;20028;-64
2021/12/25 10:42:45;;;;;;;31.40;15.45;;;;;;;9.61;100.00;97917.50;5063793;28;20091;-64
2021/12/25 10:45:16;;;;;;;37.10;19.02;;;;;;;9.63;100.00;97915.69;5063569;28;20027;-64
2021/12/25 10:47:41;;;;;;;28.95;15.65;;;;;;;9.65;100.00;97908.66;5063644;28;20086;-64
2021/12/25 10:50:14;;;;;;;29.05;15.10;;;;;;;9.62;100.00;97914.00;5063440;28;20317;-64
2021/12/25 10:52:42;;;;;;;;;;;;;;;9.63;100.00;97905.19;5064753;28;20336;-64
2021/12/25 10:55:25;;;;;;;26.77;14.38;;;;;;;9.64;100.00;97904.28;5065698;28;20105;-64
2021/12/25 10:57:56;;;;;;;28.45;15.27;;;;;;;9.58;100.00;97907.94;5067586;28;20021;-64
2021/12/25 11:00:21;;;;;;;28.40;14.07;;;;;;;9.59;100.00;97909.66;5064341;28;20074;-64
2021/12/25 11:02:50;;;;;;;22.80;13.63;;;;;;;9.58;100.00;97912.31;5047236;28;20321;-64
2021/12/25 11:05:16;;;;;;;25.00;13.90;;;;;;;9.54;100.00;97908.06;5047144;28;20276;-64
2021/12/25 11:07:41;;;;;;;24.20;12.05;;;;;;;9.59;100.00;97914.06;5047208;28;20026;-64
2021/12/25 11:10:14;;;;;;;18.63;11.35;;;;;;;9.55;100.00;97902.78;5046864;28;20272;-63
2021/12/25 11:12:40;;;;;;;23.15;11.85;;;;;;;9.51;100.00;97895.00;5047018;28;20040;-64
2021/12/25 11:15:27;;;;;;;18.13;10.68;;;;;;;9.57;100.00;97898.34;5046983;28;20029;-64
2021/12/25 11:18:04;;;;;;;23.75;11.00;;;;;;;9.57;100.00;97915.88;5047231;28;20364;-64
2021/12/25 11:20:37;;;;;;;17.38;9.90;;;;;;;9.59;100.00;97906.19;5049574;28;20024;-63
2021/12/25 11:23:06;;;;;;;18.33;8.98;;;;;;;9.56;100.00;97890.50;5057468;28;20035;-63
2021/12/25 11:25:34;;;;;;;17.05;8.70;;;;;;;9.61;100.00;97897.34;5055649;28;20347;-64
2021/12/25 11:28:01;;;;;;;17.52;9.35;;;;;;;9.62;100.00;97895.59;5053797;28;20070;-65
2021/12/25 11:30:32;;;;;;;17.83;9.13;;;;;;;9.62;100.00;97898.22;5048342;28;20083;-65
2021/12/25 11:32:59;;;;;;;19.30;8.70;;;;;;;9.62;100.00;97882.47;5045732;28;20021;-65
2021/12/25 11:35:25;;;;;;;13.93;7.82;;;;;;;9.62;100.00;97890.34;5045689;28;20359;-65
2021/12/25 11:37:54;;;;;;;15.63;8.43;;;;;;;9.63;100.00;97889.44;5045908;28;20021;-65
2021/12/25 11:40:24;;;;;;;16.52;7.97;;;;;;;9.65;100.00;97892.91;5045527;28;20013;-64
2021/12/25 11:42:54;;;;;;;14.48;8.05;;;;;;;9.57;100.00;97884.34;5047715;28;20071;-64
2021/12/25 11:45:40;;;;;;;13.15;6.57;;;;;;;9.60;100.00;97886.88;5055008;28;20184;-64
2021/12/25 11:48:15;;;;;;;13.10;7.10;;;;;;;9.60;100.00;97886.88;5045456;28;20084;-66
2021/12/25 11:50:45;;;;;;;11.63;6.82;;;;;;;9.58;100.00;97873.78;5045359;28;20026;-65
2021/12/25 11:53:18;;;;;;;15.07;6.88;;;;;;;9.57;100.00;97873.84;5045655;28;20190;-65
2021/12/25 11:58:39;;;;;;;12.80;6.97;;;;;;;9.53;100.00;97872.19;5045562;28;20100;-65
2021/12/25 12:01:17;;;;;;;13.20;6.40;;;;;;;9.52;100.00;97870.50;5049350;28;20020;-65
2021/12/25 12:03:46;;;;;;;10.90;6.40;;;;;;;9.50;100.00;97872.28;5064751;28;20088;-65
2021/12/25 12:06:13;;;;;;;12.88;6.75;;;;;;;9.50;100.00;97872.28;5065097;28;20244;-64
2021/12/25 12:08:54;;;;;;;12.38;6.97;;;;;;;9.53;100.00;97866.94;5064623;28;20029;-64
2021/12/25 12:11:21;;;;;;;20.52;8.75;;;;;;;9.53;100.00;97877.47;5061371;28;20044;-64
2021/12/25 12:13:46;;;;;;;16.58;9.05;;;;;;;9.49;100.00;97876.66;5050404;28;20028;-64
2021/12/25 12:16:12;;;;;;;20.08;9.10;;;;;;;9.51;100.00;97868.75;5052554;28;20380;-64
2021/12/25 12:18:40;;;;;;;17.05;9.70;;;;;;;9.48;100.00;97868.81;5044922;28;20025;-64
2021/12/25 12:21:17;;;;;;;15.10;8.85;;;;;;;9.47;100.00;97861.84;5063860;28;20017;-64
2021/12/25 12:24:08;;;;;;;16.15;9.25;;;;;;;9.44;100.00;97867.19;5065067;28;20439;-64
2021/12/25 12:26:48;;;;;;;16.15;8.82;;;;;;;9.43;100.00;97865.47;5059078;28;20025;-64
2021/12/25 12:29:34;;;;;;;16.80;8.88;;;;;;;9.41;100.00;97862.03;5052368;28;20041;-64
2021/12/25 12:31:59;;;;;;;16.90;9.40;;;;;;;9.41;100.00;97857.66;5055992;28;20374;-65
2021/12/25 12:34:39;;;;;;;13.80;8.65;;;;;;;9.38;100.00;97862.09;5049406;28;20053;-65
2021/12/25 12:37:13;;;;;;;14.35;8.93;;;;;;;9.43;100.00;97855.81;5048710;28;20313;-65
2021/12/25 12:40:03;;;;;;;15.77;8.93;;;;;;;9.53;100.00;97867.81;5053395;28;20274;-65
2021/12/25 12:42:37;;;;;;;19.45;9.48;;;;;;;9.65;100.00;97869.25;5049082;28;20036;-65
2021/12/25 12:45:11;;;;;;;18.23;10.07;;;;;;;9.74;100.00;97880.34;5048221;28;20018;-65
2021/12/25 12:47:37;;;;;;;18.23;8.90;;;;;;;9.85;100.00;97874.78;5043979;28;20246;-65
2021/12/25 12:50:04;;;;;;;15.38;8.32;;;;;;;9.87;100.00;97865.13;5044160;28;20092;-65
2021/12/25 12:52:38;;;;;;;15.82;9.10;;;;;;;9.90;100.00;97871.13;5058920;28;20240;-65
2021/12/25 12:55:25;;;;;;;15.13;8.38;;;;;;;9.95;100.00;97865.72;5055071;28;20021;-65
2021/12/25 12:58:06;;;;;;;17.50;8.88;;;;;;;9.97;100.00;97863.94;5054471;28;20048;-65
2021/12/25 13:00:32;;;;;;;16.92;8.75;;;;;;;9.95;100.00;97871.00;5049238;28;20260;-65